sensor_id;sensor_type;location;lat;lon;timestamp;P1;durP1;ratioP1;P2;durP2;ratioP2
1533;SDS011;760;48.822;9.304;2023-06-04T04:06:32;2.83;;;2.63;;
1533;SDS011;760;48.822;9.304;2023-06-04T04:08:58;3.07;;;2.87;;
1533;SDS011;760;48.822;9.304;2023-06-04T04:11:24;4.67;;;3.00;;
1533;SDS011;760;48.822;9.304;2023-06-04T04:13:50;2.50;;;2.30;;
1533;SDS011;760;48.822;9.304;2023-06-04T04:16:16;3.20;;;2.87;;
1533;SDS011;760;48.822;9.304;2023-06-04T04:18:42;2.77;;;2.00;;
1533;SDS011;760;48.822;9.304;2023-06-04T04:21:09;3.90;;;3.33;;
1533;SDS011;760;48.822;9.304;2023-06-04T04:23:35;2.60;;;2.40;;
1533;SDS011;760;48.822;9.304;2023-06-04T04:26:03;8.37;;;3.93;;
1533;SDS011;760;48.822;9.304;2023-06-04T04:28:28;2.87;;;2.73;;
1533;SDS011;760;48.822;9.304;2023-06-04T04:30:55;4.23;;;3.93;;
1533;SDS011;760;48.822;9.304;2023-06-04T04:33:27;2.40;;;2.20;;
1533;SDS011;760;48.822;9.304;2023-06-04T04:35:57;3.23;;;2.93;;
1533;SDS011;760;48.822;9.304;2023-06-04T04:38:24;4.33;;;3.60;;
1533;SDS011;760;48.822;9.304;2023-06-04T04:40:50;3.10;;;2.50;;
1533;SDS011;760;48.822;9.304;2023-06-04T04:43:17;2.57;;;2.37;;
1533;SDS011;760;48.822;9.304;2023-06-04T04:45:59;3.50;;;3.20;;
1533;SDS011;760;48.822;9.304;2023-06-04T04:48:25;5.40;;;3.40;;
1533;SDS011;760;48.822;9.304;2023-06-04T04:50:51;2.97;;;2.77;;
1533;SDS011;760;48.822;9.304;2023-06-04T04:53:17;2.63;;;2.40;;
1533;SDS011;760;48.822;9.304;2023-06-04T04:55:42;2.40;;;2.20;;
1533;SDS011;760;48.822;9.304;2023-06-04T04:58:08;2.67;;;1.90;;
1533;SDS011;760;48.822;9.304;2023-06-04T05:00:34;3.60;;;3.30;;
1533;SDS011;760;48.822;9.304;2023-06-04T05:02:59;3.40;;;2.87;;
1533;SDS011;760;48.822;9.304;2023-06-04T05:05:25;3.47;;;3.23;;
1533;SDS011;760;48.822;9.304;2023-06-04T05:07:50;3.03;;;2.67;;
1533;SDS011;760;48.822;9.304;2023-06-04T05:10:16;3.33;;;2.80;;
1533;SDS011;760;48.822;9.304;2023-06-04T05:12:55;2.67;;;2.47;;
1533;SDS011;760;48.822;9.304;2023-06-04T05:15:25;2.23;;;2.03;;
1533;SDS011;760;48.822;9.304;2023-06-04T05:17:51;1.77;;;1.67;;
1533;SDS011;760;48.822;9.304;2023-06-04T05:20:17;2.60;;;1.97;;
1533;SDS011;760;48.822;9.304;2023-06-04T05:22:44;2.10;;;2.00;;
1533;SDS011;760;48.822;9.304;2023-06-04T05:25:10;1.37;;;1.27;;
1533;SDS011;760;48.822;9.304;2023-06-04T05:27:36;2.10;;;1.90;;
1533;SDS011;760;48.822;9.304;2023-06-04T05:30:03;1.80;;;1.60;;
1533;SDS011;760;48.822;9.304;2023-06-04T05:32:29;1.10;;;1.10;;
1533;SDS011;760;48.822;9.304;2023-06-04T05:34:57;1.90;;;1.80;;
1533;SDS011;760;48.822;9.304;2023-06-04T05:37:24;1.60;;;1.50;;
1533;SDS011;760;48.822;9.304;2023-06-04T05:39:53;1.77;;;1.67;;
1533;SDS011;760;48.822;9.304;2023-06-04T05:42:22;1.70;;;1.60;;
1533;SDS011;760;48.822;9.304;2023-06-04T05:44:48;1.70;;;1.40;;
1533;SDS011;760;48.822;9.304;2023-06-04T05:47:15;1.60;;;1.50;;
1533;SDS011;760;48.822;9.304;2023-06-04T05:49:41;1.33;;;1.23;;
1533;SDS011;760;48.822;9.304;2023-06-04T05:52:07;1.40;;;1.30;;
1533;SDS011;760;48.822;9.304;2023-06-04T05:54:33;1.27;;;1.17;;
1533;SDS011;760;48.822;9.304;2023-06-04T05:56:58;1.33;;;1.23;;
1533;SDS011;760;48.822;9.304;2023-06-04T05:59:24;1.33;;;1.23;;
1533;SDS011;760;48.822;9.304;2023-06-04T06:01:50;1.30;;;1.20;;
1533;SDS011;760;48.822;9.304;2023-06-04T06:04:15;1.10;;;1.00;;
1533;SDS011;760;48.822;9.304;2023-06-04T06:06:41;1.43;;;1.33;;
1533;SDS011;760;48.822;9.304;2023-06-04T06:09:08;1.50;;;1.40;;
1533;SDS011;760;48.822;9.304;2023-06-04T06:11:35;1.10;;;1.10;;
1533;SDS011;760;48.822;9.304;2023-06-04T06:14:01;1.67;;;1.27;;
1533;SDS011;760;48.822;9.304;2023-06-04T06:16:26;1.90;;;1.53;;
1533;SDS011;760;48.822;9.304;2023-06-04T06:18:52;1.00;;;1.00;;
1533;SDS011;760;48.822;9.304;2023-06-04T06:21:18;2.10;;;1.13;;
1533;SDS011;760;48.822;9.304;2023-06-04T06:23:44;2.03;;;1.53;;
1533;SDS011;760;48.822;9.304;2023-06-04T06:26:10;5.20;;;1.40;;
1533;SDS011;760;48.822;9.304;2023-06-04T06:28:36;1.83;;;1.23;;
1533;SDS011;760;48.822;9.304;2023-06-04T06:31:02;1.00;;;1.00;;
1533;SDS011;760;48.822;9.304;2023-06-04T06:33:28;1.30;;;1.30;;
1533;SDS011;760;48.822;9.304;2023-06-04T06:35:53;2.07;;;1.87;;
1533;SDS011;760;48.822;9.304;2023-06-04T06:38:19;1.13;;;1.10;;
1533;SDS011;760;48.822;9.304;2023-06-04T06:40:45;2.20;;;1.57;;
1533;SDS011;760;48.822;9.304;2023-06-04T06:43:10;1.80;;;1.47;;
1533;SDS011;760;48.822;9.304;2023-06-04T06:45:36;1.53;;;1.10;;
1533;SDS011;760;48.822;9.304;2023-06-04T06:48:02;1.50;;;1.40;;
1533;SDS011;760;48.822;9.304;2023-06-04T06:50:29;2.70;;;1.10;;
1533;SDS011;760;48.822;9.304;2023-06-04T06:52:54;1.50;;;1.40;;
1533;SDS011;760;48.822;9.304;2023-06-04T06:55:20;0.97;;;0.97;;
1533;SDS011;760;48.822;9.304;2023-06-04T06:57:47;1.50;;;1.40;;
1533;SDS011;760;48.822;9.304;2023-06-04T07:00:12;1.70;;;1.60;;
1533;SDS011;760;48.822;9.304;2023-06-04T07:02:38;1.03;;;1.03;;
1533;SDS011;760;48.822;9.304;2023-06-04T07:05:04;1.30;;;1.20;;
1533;SDS011;760;48.822;9.304;2023-06-04T07:07:30;1.23;;;1.23;;
1533;SDS011;760;48.822;9.304;2023-06-04T07:09:56;1.53;;;1.43;;
1533;SDS011;760;48.822;9.304;2023-06-04T07:12:21;1.33;;;1.33;;
1533;SDS011;760;48.822;9.304;2023-06-04T07:14:47;1.43;;;1.10;;
1533;SDS011;760;48.822;9.304;2023-06-04T07:17:12;1.60;;;1.50;;
1533;SDS011;760;48.822;9.304;2023-06-04T07:19:38;1.40;;;1.30;;
1533;SDS011;760;48.822;9.304;2023-06-04T07:22:04;1.00;;;1.00;;
1533;SDS011;760;48.822;9.304;2023-06-04T07:24:30;2.23;;;2.03;;
1533;SDS011;760;48.822;9.304;2023-06-04T07:26:55;0.93;;;0.93;;
1533;SDS011;760;48.822;9.304;2023-06-04T07:29:21;1.57;;;1.30;;
1533;SDS011;760;48.822;9.304;2023-06-04T07:31:47;1.57;;;1.47;;
1533;SDS011;760;48.822;9.304;2023-06-04T07:34:12;1.60;;;1.50;;
1533;SDS011;760;48.822;9.304;2023-06-04T07:36:38;1.17;;;1.10;;
1533;SDS011;760;48.822;9.304;2023-06-04T07:39:04;2.03;;;1.60;;
1533;SDS011;760;48.822;9.304;2023-06-04T07:41:29;1.77;;;1.67;;
1533;SDS011;760;48.822;9.304;2023-06-04T07:43:55;1.53;;;1.43;;
1533;SDS011;760;48.822;9.304;2023-06-04T07:46:21;1.40;;;1.30;;
1533;SDS011;760;48.822;9.304;2023-06-04T07:48:46;1.70;;;1.60;;
1533;SDS011;760;48.822;9.304;2023-06-04T07:51:12;1.93;;;1.53;;
1533;SDS011;760;48.822;9.304;2023-06-04T07:53:38;2.17;;;2.00;;
1533;SDS011;760;48.822;9.304;2023-06-04T07:56:05;1.60;;;1.50;;
1533;SDS011;760;48.822;9.304;2023-06-04T07:58:30;1.97;;;1.83;;
1533;SDS011;760;48.822;9.304;2023-06-04T08:00:56;1.77;;;1.67;;
1533;SDS011;760;48.822;9.304;2023-06-04T08:03:22;1.93;;;1.83;;
1533;SDS011;760;48.822;9.304;2023-06-04T08:05:48;2.13;;;1.93;;
1533;SDS011;760;48.822;9.304;2023-06-04T08:08:13;1.87;;;1.77;;
1533;SDS011;760;48.822;9.304;2023-06-04T08:10:39;2.30;;;1.60;;
1533;SDS011;760;48.822;9.304;2023-06-04T08:13:05;1.43;;;1.33;;
1533;SDS011;760;48.822;9.304;2023-06-04T08:15:31;1.80;;;1.70;;
1533;SDS011;760;48.822;9.304;2023-06-04T08:17:56;1.70;;;1.60;;
1533;SDS011;760;48.822;9.304;2023-06-04T08:20:23;1.70;;;1.60;;
1533;SDS011;760;48.822;9.304;2023-06-04T08:22:49;2.10;;;1.90;;
1533;SDS011;760;48.822;9.304;2023-06-04T08:25:15;1.80;;;1.70;;
1533;SDS011;760;48.822;9.304;2023-06-04T08:27:41;1.70;;;1.60;;
1533;SDS011;760;48.822;9.304;2023-06-04T08:30:07;2.60;;;1.70;;
1533;SDS011;760;48.822;9.304;2023-06-04T08:32:34;1.93;;;1.83;;
1533;SDS011;760;48.822;9.304;2023-06-04T08:34:59;1.87;;;1.77;;
1533;SDS011;760;48.822;9.304;2023-06-04T08:37:25;2.20;;;2.10;;
1533;SDS011;760;48.822;9.304;2023-06-04T08:39:51;1.80;;;1.70;;
1533;SDS011;760;48.822;9.304;2023-06-04T08:42:51;1.87;;;1.77;;
1533;SDS011;760;48.822;9.304;2023-06-04T08:45:13;1.80;;;1.70;;
1533;SDS011;760;48.822;9.304;2023-06-04T08:47:43;1.80;;;1.70;;
1533;SDS011;760;48.822;9.304;2023-06-04T08:50:13;1.90;;;1.80;;
1533;SDS011;760;48.822;9.304;2023-06-04T08:52:42;2.23;;;2.07;;
1533;SDS011;760;48.822;9.304;2023-06-04T08:55:08;2.17;;;2.07;;
1533;SDS011;760;48.822;9.304;2023-06-04T08:57:36;2.10;;;2.00;;
1533;SDS011;760;48.822;9.304;2023-06-04T09:00:02;1.70;;;1.60;;
1533;SDS011;760;48.822;9.304;2023-06-04T09:02:30;2.00;;;1.90;;
1533;SDS011;760;48.822;9.304;2023-06-04T09:04:56;2.20;;;2.10;;
1533;SDS011;760;48.822;9.304;2023-06-04T09:07:22;2.00;;;1.90;;
1533;SDS011;760;48.822;9.304;2023-06-04T09:09:48;1.93;;;1.83;;
1533;SDS011;760;48.822;9.304;2023-06-04T09:12:21;2.03;;;1.93;;
1533;SDS011;760;48.822;9.304;2023-06-04T09:14:49;1.70;;;1.60;;
1533;SDS011;760;48.822;9.304;2023-06-04T09:17:21;1.60;;;1.50;;
1533;SDS011;760;48.822;9.304;2023-06-04T09:19:47;2.17;;;1.97;;
1533;SDS011;760;48.822;9.304;2023-06-04T09:22:13;1.87;;;1.77;;
1533;SDS011;760;48.822;9.304;2023-06-04T09:24:45;1.70;;;1.60;;
1533;SDS011;760;48.822;9.304;2023-06-04T09:27:13;1.97;;;1.87;;
1533;SDS011;760;48.822;9.304;2023-06-04T09:29:48;1.80;;;1.70;;
1533;SDS011;760;48.822;9.304;2023-06-04T09:32:24;2.00;;;1.90;;
1533;SDS011;760;48.822;9.304;2023-06-04T09:34:53;1.70;;;1.60;;
1533;SDS011;760;48.822;9.304;2023-06-04T09:37:21;1.80;;;1.70;;
1533;SDS011;760;48.822;9.304;2023-06-04T09:39:57;2.13;;;2.03;;
1533;SDS011;760;48.822;9.304;2023-06-04T09:42:23;1.97;;;1.87;;
1533;SDS011;760;48.822;9.304;2023-06-04T09:44:49;1.50;;;1.50;;
1533;SDS011;760;48.822;9.304;2023-06-04T09:47:14;2.10;;;2.00;;
1533;SDS011;760;48.822;9.304;2023-06-04T09:49:41;1.77;;;1.67;;
1533;SDS011;760;48.822;9.304;2023-06-04T09:52:07;2.10;;;2.00;;
1533;SDS011;760;48.822;9.304;2023-06-04T09:54:36;1.90;;;1.80;;
1533;SDS011;760;48.822;9.304;2023-06-04T09:57:03;2.43;;;2.33;;
1533;SDS011;760;48.822;9.304;2023-06-04T09:59:43;1.73;;;1.63;;
1533;SDS011;760;48.822;9.304;2023-06-04T10:02:19;1.83;;;1.73;;
1533;SDS011;760;48.822;9.304;2023-06-04T10:04:48;2.40;;;2.30;;
1533;SDS011;760;48.822;9.304;2023-06-04T10:07:24;1.77;;;1.67;;
1533;SDS011;760;48.822;9.304;2023-06-04T10:09:54;2.10;;;2.00;;
1533;SDS011;760;48.822;9.304;2023-06-04T10:12:23;2.37;;;2.23;;
1533;SDS011;760;48.822;9.304;2023-06-04T10:14:52;2.20;;;2.10;;
1533;SDS011;760;48.822;9.304;2023-06-04T10:17:22;1.80;;;1.70;;
1533;SDS011;760;48.822;9.304;2023-06-04T10:19:50;2.10;;;2.00;;
1533;SDS011;760;48.822;9.304;2023-06-04T10:22:19;1.80;;;1.70;;
1533;SDS011;760;48.822;9.304;2023-06-04T10:24:45;2.17;;;2.00;;
1533;SDS011;760;48.822;9.304;2023-06-04T10:27:11;1.93;;;1.83;;
1533;SDS011;760;48.822;9.304;2023-06-04T10:29:38;3.70;;;2.07;;
1533;SDS011;760;48.822;9.304;2023-06-04T10:32:04;2.87;;;2.67;;
1533;SDS011;760;48.822;9.304;2023-06-04T10:34:30;2.00;;;1.90;;
1533;SDS011;760;48.822;9.304;2023-06-04T10:36:56;2.00;;;1.90;;
1533;SDS011;760;48.822;9.304;2023-06-04T10:39:26;1.90;;;1.80;;
1533;SDS011;760;48.822;9.304;2023-06-04T10:42:03;1.90;;;1.80;;
1533;SDS011;760;48.822;9.304;2023-06-04T10:44:45;2.23;;;2.03;;
1533;SDS011;760;48.822;9.304;2023-06-04T10:47:21;2.70;;;2.50;;
1533;SDS011;760;48.822;9.304;2023-06-04T10:49:51;2.23;;;2.03;;
1533;SDS011;760;48.822;9.304;2023-06-04T10:52:18;2.63;;;2.43;;
1533;SDS011;760;48.822;9.304;2023-06-04T10:54:45;2.20;;;2.10;;
1533;SDS011;760;48.822;9.304;2023-06-04T10:57:17;2.10;;;2.00;;
1533;SDS011;760;48.822;9.304;2023-06-04T11:00:00;2.13;;;2.03;;
1533;SDS011;760;48.822;9.304;2023-06-04T11:02:28;2.10;;;1.90;;
1533;SDS011;760;48.822;9.304;2023-06-04T11:05:00;1.97;;;1.83;;
1533;SDS011;760;48.822;9.304;2023-06-04T11:07:41;2.63;;;2.43;;
1533;SDS011;760;48.822;9.304;2023-06-04T11:10:09;1.83;;;1.73;;
1533;SDS011;760;48.822;9.304;2023-06-04T11:12:44;2.50;;;2.00;;
1533;SDS011;760;48.822;9.304;2023-06-04T11:15:11;2.10;;;2.00;;
1533;SDS011;760;48.822;9.304;2023-06-04T11:17:37;2.07;;;1.87;;
1533;SDS011;760;48.822;9.304;2023-06-04T11:20:17;2.40;;;2.30;;
1533;SDS011;760;48.822;9.304;2023-06-04T11:22:50;1.77;;;1.67;;
1533;SDS011;760;48.822;9.304;2023-06-04T11:25:23;1.80;;;1.70;;
1533;SDS011;760;48.822;9.304;2023-06-04T11:27:51;1.67;;;1.50;;
1533;SDS011;760;48.822;9.304;2023-06-04T11:30:18;2.10;;;1.90;;
1533;SDS011;760;48.822;9.304;2023-06-04T11:32:43;1.93;;;1.67;;
1533;SDS011;760;48.822;9.304;2023-06-04T11:35:09;2.20;;;2.07;;
1533;SDS011;760;48.822;9.304;2023-06-04T11:37:36;1.83;;;1.73;;
1533;SDS011;760;48.822;9.304;2023-06-04T11:40:03;1.87;;;1.73;;
1533;SDS011;760;48.822;9.304;2023-06-04T11:42:40;2.17;;;1.93;;
1533;SDS011;760;48.822;9.304;2023-06-04T11:45:09;1.93;;;1.83;;
1533;SDS011;760;48.822;9.304;2023-06-04T11:47:37;2.00;;;1.90;;
1533;SDS011;760;48.822;9.304;2023-06-04T11:50:02;2.10;;;1.90;;
1533;SDS011;760;48.822;9.304;2023-06-04T11:52:29;2.03;;;1.83;;
1533;SDS011;760;48.822;9.304;2023-06-04T11:54:54;1.57;;;1.47;;
1533;SDS011;760;48.822;9.304;2023-06-04T11:57:21;2.20;;;2.10;;
1533;SDS011;760;48.822;9.304;2023-06-04T11:59:47;1.80;;;1.70;;
1533;SDS011;760;48.822;9.304;2023-06-04T12:02:12;2.43;;;2.23;;
1533;SDS011;760;48.822;9.304;2023-06-04T12:04:38;3.17;;;2.90;;
1533;SDS011;760;48.822;9.304;2023-06-04T12:07:04;2.30;;;2.20;;
1533;SDS011;760;48.822;9.304;2023-06-04T12:09:31;1.97;;;1.87;;
1533;SDS011;760;48.822;9.304;2023-06-04T12:12:01;1.80;;;1.70;;
1533;SDS011;760;48.822;9.304;2023-06-04T12:14:28;2.17;;;2.07;;
1533;SDS011;760;48.822;9.304;2023-06-04T12:16:57;2.47;;;2.27;;
1533;SDS011;760;48.822;9.304;2023-06-04T12:19:27;2.10;;;2.00;;
1533;SDS011;760;48.822;9.304;2023-06-04T12:22:02;3.87;;;3.23;;
1533;SDS011;760;48.822;9.304;2023-06-04T12:24:31;1.83;;;1.70;;
1533;SDS011;760;48.822;9.304;2023-06-04T12:27:06;5.17;;;1.60;;
1533;SDS011;760;48.822;9.304;2023-06-04T12:29:36;1.80;;;1.80;;
1533;SDS011;760;48.822;9.304;2023-06-04T12:32:05;2.30;;;2.10;;
1533;SDS011;760;48.822;9.304;2023-06-04T12:34:36;1.90;;;1.80;;
1533;SDS011;760;48.822;9.304;2023-06-04T12:37:02;1.87;;;1.77;;
1533;SDS011;760;48.822;9.304;2023-06-04T12:39:30;1.77;;;1.67;;
1533;SDS011;760;48.822;9.304;2023-06-04T12:41:57;1.80;;;1.70;;
1533;SDS011;760;48.822;9.304;2023-06-04T12:44:22;1.70;;;1.47;;
1533;SDS011;760;48.822;9.304;2023-06-04T12:46:48;2.03;;;1.90;;
1533;SDS011;760;48.822;9.304;2023-06-04T12:49:13;2.47;;;2.27;;
1533;SDS011;760;48.822;9.304;2023-06-04T12:51:39;1.80;;;1.70;;
1533;SDS011;760;48.822;9.304;2023-06-04T12:54:05;2.10;;;2.00;;
1533;SDS011;760;48.822;9.304;2023-06-04T12:56:30;11.07;;;1.97;;
1533;SDS011;760;48.822;9.304;2023-06-04T12:58:56;1.80;;;1.70;;
1533;SDS011;760;48.822;9.304;2023-06-04T13:01:22;1.90;;;1.80;;
1533;SDS011;760;48.822;9.304;2023-06-04T13:03:47;1.40;;;1.40;;
1533;SDS011;760;48.822;9.304;2023-06-04T13:06:13;2.10;;;1.93;;
1533;SDS011;760;48.822;9.304;2023-06-04T13:08:38;1.70;;;1.60;;
1533;SDS011;760;48.822;9.304;2023-06-04T13:11:05;2.13;;;2.03;;
1533;SDS011;760;48.822;9.304;2023-06-04T13:13:31;2.13;;;1.97;;
1533;SDS011;760;48.822;9.304;2023-06-04T13:15:57;2.27;;;2.07;;
1533;SDS011;760;48.822;9.304;2023-06-04T13:18:22;1.70;;;1.60;;
1533;SDS011;760;48.822;9.304;2023-06-04T13:20:48;2.50;;;2.30;;
1533;SDS011;760;48.822;9.304;2023-06-04T13:23:14;3.67;;;2.10;;
1533;SDS011;760;48.822;9.304;2023-06-04T13:25:40;1.93;;;1.67;;
1533;SDS011;760;48.822;9.304;2023-06-04T13:28:05;2.00;;;1.80;;
1533;SDS011;760;48.822;9.304;2023-06-04T13:30:33;2.30;;;2.07;;
1533;SDS011;760;48.822;9.304;2023-06-04T13:33:04;1.63;;;1.53;;
1533;SDS011;760;48.822;9.304;2023-06-04T13:35:31;3.00;;;2.07;;
1533;SDS011;760;48.822;9.304;2023-06-04T13:37:56;2.30;;;1.67;;
1533;SDS011;760;48.822;9.304;2023-06-04T13:40:22;1.90;;;1.60;;
1533;SDS011;760;48.822;9.304;2023-06-04T13:42:48;1.87;;;1.77;;
1533;SDS011;760;48.822;9.304;2023-06-04T13:45:13;1.67;;;1.37;;
1533;SDS011;760;48.822;9.304;2023-06-04T13:47:39;1.40;;;1.30;;
1533;SDS011;760;48.822;9.304;2023-06-04T13:50:05;1.97;;;1.77;;
1533;SDS011;760;48.822;9.304;2023-06-04T13:52:31;1.60;;;1.50;;
1533;SDS011;760;48.822;9.304;2023-06-04T13:54:56;1.60;;;1.50;;
1533;SDS011;760;48.822;9.304;2023-06-04T13:57:25;1.60;;;1.50;;
1533;SDS011;760;48.822;9.304;2023-06-04T13:59:53;1.73;;;1.63;;
1533;SDS011;760;48.822;9.304;2023-06-04T14:02:18;1.63;;;1.30;;
1533;SDS011;760;48.822;9.304;2023-06-04T14:04:44;1.90;;;1.70;;
1533;SDS011;760;48.822;9.304;2023-06-04T14:07:10;1.60;;;1.50;;
1533;SDS011;760;48.822;9.304;2023-06-04T14:09:35;1.60;;;1.50;;
1533;SDS011;760;48.822;9.304;2023-06-04T14:12:01;1.73;;;1.63;;
1533;SDS011;760;48.822;9.304;2023-06-04T14:14:28;1.30;;;1.20;;
1533;SDS011;760;48.822;9.304;2023-06-04T14:17:01;1.87;;;1.63;;
1533;SDS011;760;48.822;9.304;2023-06-04T14:19:31;1.73;;;1.57;;
1533;SDS011;760;48.822;9.304;2023-06-04T14:21:57;2.07;;;1.97;;
1533;SDS011;760;48.822;9.304;2023-06-04T14:24:23;2.10;;;1.60;;
1533;SDS011;760;48.822;9.304;2023-06-04T14:26:49;1.80;;;1.63;;
1533;SDS011;760;48.822;9.304;2023-06-04T14:29:14;2.20;;;1.60;;
1533;SDS011;760;48.822;9.304;2023-06-04T14:31:40;1.60;;;1.47;;
1533;SDS011;760;48.822;9.304;2023-06-04T14:34:06;2.00;;;1.90;;
1533;SDS011;760;48.822;9.304;2023-06-04T14:36:33;1.60;;;1.50;;
1533;SDS011;760;48.822;9.304;2023-06-04T14:38:58;1.67;;;1.57;;
1533;SDS011;760;48.822;9.304;2023-06-04T14:41:24;1.90;;;1.80;;
1533;SDS011;760;48.822;9.304;2023-06-04T14:43:51;2.10;;;1.90;;
1533;SDS011;760;48.822;9.304;2023-06-04T14:46:17;1.77;;;1.67;;
1533;SDS011;760;48.822;9.304;2023-06-04T14:48:43;2.40;;;2.20;;
1533;SDS011;760;48.822;9.304;2023-06-04T14:51:08;1.80;;;1.70;;
1533;SDS011;760;48.822;9.304;2023-06-04T14:53:34;2.77;;;1.93;;
1533;SDS011;760;48.822;9.304;2023-06-04T14:56:04;1.50;;;1.40;;
1533;SDS011;760;48.822;9.304;2023-06-04T14:58:30;2.63;;;1.67;;
1533;SDS011;760;48.822;9.304;2023-06-04T15:00:55;2.30;;;2.10;;
1533;SDS011;760;48.822;9.304;2023-06-04T15:03:24;1.47;;;1.37;;
1533;SDS011;760;48.822;9.304;2023-06-04T15:05:51;1.70;;;1.60;;
1533;SDS011;760;48.822;9.304;2023-06-04T15:08:17;1.77;;;1.63;;
1533;SDS011;760;48.822;9.304;2023-06-04T15:10:42;1.87;;;1.50;;
1533;SDS011;760;48.822;9.304;2023-06-04T15:13:08;1.53;;;1.43;;
1533;SDS011;760;48.822;9.304;2023-06-04T15:15:34;1.67;;;1.53;;
1533;SDS011;760;48.822;9.304;2023-06-04T15:17:59;1.57;;;1.43;;
1533;SDS011;760;48.822;9.304;2023-06-04T15:20:25;1.50;;;1.40;;
1533;SDS011;760;48.822;9.304;2023-06-04T15:22:52;1.33;;;1.33;;
1533;SDS011;760;48.822;9.304;2023-06-04T15:25:18;1.40;;;1.40;;
1533;SDS011;760;48.822;9.304;2023-06-04T15:27:44;1.67;;;1.57;;
1533;SDS011;760;48.822;9.304;2023-06-04T15:30:10;1.30;;;1.20;;
1533;SDS011;760;48.822;9.304;2023-06-04T15:32:36;1.40;;;1.30;;
1533;SDS011;760;48.822;9.304;2023-06-04T15:35:02;1.77;;;1.67;;
1533;SDS011;760;48.822;9.304;2023-06-04T15:37:28;1.57;;;1.33;;
1533;SDS011;760;48.822;9.304;2023-06-04T15:39:54;1.80;;;1.53;;
1533;SDS011;760;48.822;9.304;2023-06-04T15:42:22;1.47;;;1.37;;
1533;SDS011;760;48.822;9.304;2023-06-04T15:44:48;1.63;;;1.53;;
1533;SDS011;760;48.822;9.304;2023-06-04T15:47:14;2.03;;;1.30;;
1533;SDS011;760;48.822;9.304;2023-06-04T15:49:39;1.73;;;1.63;;
1533;SDS011;760;48.822;9.304;2023-06-04T15:52:05;1.80;;;1.70;;
1533;SDS011;760;48.822;9.304;2023-06-04T15:54:31;1.80;;;1.70;;
1533;SDS011;760;48.822;9.304;2023-06-04T15:56:57;1.67;;;1.20;;
1533;SDS011;760;48.822;9.304;2023-06-04T15:59:23;1.40;;;1.30;;
1533;SDS011;760;48.822;9.304;2023-06-04T16:01:49;2.03;;;1.60;;
1533;SDS011;760;48.822;9.304;2023-06-04T16:04:16;1.40;;;1.20;;
1533;SDS011;760;48.822;9.304;2023-06-04T16:06:41;1.50;;;1.40;;
1533;SDS011;760;48.822;9.304;2023-06-04T16:09:07;2.10;;;1.97;;
1533;SDS011;760;48.822;9.304;2023-06-04T16:11:33;1.60;;;1.50;;
1533;SDS011;760;48.822;9.304;2023-06-04T16:14:02;1.80;;;1.37;;
1533;SDS011;760;48.822;9.304;2023-06-04T16:16:29;1.50;;;1.33;;
1533;SDS011;760;48.822;9.304;2023-06-04T16:18:55;1.83;;;1.27;;
1533;SDS011;760;48.822;9.304;2023-06-04T16:21:21;1.77;;;1.67;;
1533;SDS011;760;48.822;9.304;2023-06-04T16:23:47;1.23;;;1.17;;
1533;SDS011;760;48.822;9.304;2023-06-04T16:26:12;1.43;;;1.33;;
1533;SDS011;760;48.822;9.304;2023-06-04T16:28:39;1.33;;;1.33;;
1533;SDS011;760;48.822;9.304;2023-06-04T16:31:05;1.60;;;1.50;;
1533;SDS011;760;48.822;9.304;2023-06-04T16:33:31;1.30;;;1.20;;
1533;SDS011;760;48.822;9.304;2023-06-04T16:35:56;1.33;;;1.33;;
1533;SDS011;760;48.822;9.304;2023-06-04T16:38:22;1.40;;;1.27;;
1533;SDS011;760;48.822;9.304;2023-06-04T16:40:48;1.90;;;1.80;;
1533;SDS011;760;48.822;9.304;2023-06-04T16:43:13;1.40;;;1.30;;
1533;SDS011;760;48.822;9.304;2023-06-04T16:45:40;1.67;;;1.37;;
1533;SDS011;760;48.822;9.304;2023-06-04T16:48:06;2.27;;;1.17;;
1533;SDS011;760;48.822;9.304;2023-06-04T16:50:32;1.43;;;1.33;;
1533;SDS011;760;48.822;9.304;2023-06-04T16:52:58;1.10;;;1.10;;
1533;SDS011;760;48.822;9.304;2023-06-04T16:55:28;1.83;;;1.73;;
1533;SDS011;760;48.822;9.304;2023-06-04T16:57:58;2.83;;;1.30;;
1533;SDS011;760;48.822;9.304;2023-06-04T17:00:24;1.57;;;1.47;;
1533;SDS011;760;48.822;9.304;2023-06-04T17:02:50;1.40;;;1.33;;
1533;SDS011;760;48.822;9.304;2023-06-04T17:05:15;1.33;;;1.20;;
1533;SDS011;760;48.822;9.304;2023-06-04T17:07:43;1.47;;;1.37;;
1533;SDS011;760;48.822;9.304;2023-06-04T17:10:09;1.67;;;1.57;;
1533;SDS011;760;48.822;9.304;2023-06-04T17:12:36;1.90;;;1.80;;
1533;SDS011;760;48.822;9.304;2023-06-04T17:15:02;1.73;;;1.20;;
1533;SDS011;760;48.822;9.304;2023-06-04T17:17:28;1.40;;;1.37;;
1533;SDS011;760;48.822;9.304;2023-06-04T17:19:54;1.43;;;1.33;;
1533;SDS011;760;48.822;9.304;2023-06-04T17:22:20;1.50;;;1.40;;
1533;SDS011;760;48.822;9.304;2023-06-04T17:24:45;1.40;;;1.30;;
1533;SDS011;760;48.822;9.304;2023-06-04T17:27:11;1.07;;;1.07;;
1533;SDS011;760;48.822;9.304;2023-06-04T17:29:37;1.07;;;1.07;;
1533;SDS011;760;48.822;9.304;2023-06-04T17:32:03;1.57;;;1.47;;
1533;SDS011;760;48.822;9.304;2023-06-04T17:34:29;1.23;;;1.23;;
1533;SDS011;760;48.822;9.304;2023-06-04T17:36:54;1.30;;;1.20;;
1533;SDS011;760;48.822;9.304;2023-06-04T17:39:20;1.50;;;1.40;;
1533;SDS011;760;48.822;9.304;2023-06-04T17:41:45;1.40;;;1.30;;
1533;SDS011;760;48.822;9.304;2023-06-04T17:44:11;1.57;;;1.30;;
1533;SDS011;760;48.822;9.304;2023-06-04T17:46:37;1.60;;;1.50;;
1533;SDS011;760;48.822;9.304;2023-06-04T17:49:02;1.40;;;1.30;;
1533;SDS011;760;48.822;9.304;2023-06-04T17:51:28;1.40;;;1.30;;
1533;SDS011;760;48.822;9.304;2023-06-04T17:53:55;1.10;;;1.10;;
1533;SDS011;760;48.822;9.304;2023-06-04T17:56:20;1.40;;;1.30;;
1533;SDS011;760;48.822;9.304;2023-06-04T17:58:46;1.43;;;1.17;;
1533;SDS011;760;48.822;9.304;2023-06-04T18:01:12;1.30;;;1.20;;
1533;SDS011;760;48.822;9.304;2023-06-04T18:03:37;1.17;;;1.07;;
1533;SDS011;760;48.822;9.304;2023-06-04T18:06:03;1.07;;;1.00;;
1533;SDS011;760;48.822;9.304;2023-06-04T18:08:29;1.40;;;1.30;;
1533;SDS011;760;48.822;9.304;2023-06-04T18:10:55;1.30;;;1.30;;
1533;SDS011;760;48.822;9.304;2023-06-04T18:13:21;1.27;;;1.17;;
1533;SDS011;760;48.822;9.304;2023-06-04T18:15:47;1.70;;;1.47;;
1533;SDS011;760;48.822;9.304;2023-06-04T18:18:13;0.70;;;0.70;;
1533;SDS011;760;48.822;9.304;2023-06-04T18:20:39;1.37;;;1.17;;
1533;SDS011;760;48.822;9.304;2023-06-04T18:23:06;1.63;;;1.53;;
1533;SDS011;760;48.822;9.304;2023-06-04T18:25:32;1.43;;;1.20;;
1533;SDS011;760;48.822;9.304;2023-06-04T18:27:57;1.43;;;1.33;;
1533;SDS011;760;48.822;9.304;2023-06-04T18:30:23;1.50;;;1.40;;
1533;SDS011;760;48.822;9.304;2023-06-04T18:32:49;1.53;;;1.43;;
1533;SDS011;760;48.822;9.304;2023-06-04T18:35:14;1.90;;;1.63;;
1533;SDS011;760;48.822;9.304;2023-06-04T18:37:40;1.40;;;1.30;;
1533;SDS011;760;48.822;9.304;2023-06-04T18:40:07;1.00;;;1.00;;
1533;SDS011;760;48.822;9.304;2023-06-04T18:42:33;1.40;;;1.30;;
1533;SDS011;760;48.822;9.304;2023-06-04T18:44:58;1.57;;;1.47;;
1533;SDS011;760;48.822;9.304;2023-06-04T18:47:24;1.80;;;1.20;;
1533;SDS011;760;48.822;9.304;2023-06-04T18:49:50;1.03;;;1.03;;
1533;SDS011;760;48.822;9.304;2023-06-04T18:52:16;1.60;;;1.50;;
1533;SDS011;760;48.822;9.304;2023-06-04T18:54:42;1.40;;;1.30;;
1533;SDS011;760;48.822;9.304;2023-06-04T18:57:09;1.37;;;1.27;;
1533;SDS011;760;48.822;9.304;2023-06-04T18:59:38;1.63;;;1.50;;
1533;SDS011;760;48.822;9.304;2023-06-04T19:02:03;1.27;;;1.23;;
1533;SDS011;760;48.822;9.304;2023-06-04T19:04:29;1.20;;;1.10;;
1533;SDS011;760;48.822;9.304;2023-06-04T19:06:54;1.27;;;1.27;;
1533;SDS011;760;48.822;9.304;2023-06-04T19:09:20;1.20;;;1.10;;
1533;SDS011;760;48.822;9.304;2023-06-04T19:11:46;2.20;;;1.60;;
1533;SDS011;760;48.822;9.304;2023-06-04T19:14:11;1.70;;;1.37;;
1533;SDS011;760;48.822;9.304;2023-06-04T19:16:37;1.17;;;1.07;;
1533;SDS011;760;48.822;9.304;2023-06-04T19:19:02;1.63;;;1.53;;
1533;SDS011;760;48.822;9.304;2023-06-04T19:21:32;1.73;;;1.50;;
1533;SDS011;760;48.822;9.304;2023-06-04T19:23:58;1.17;;;0.93;;
1533;SDS011;760;48.822;9.304;2023-06-04T19:26:23;1.50;;;1.40;;
1533;SDS011;760;48.822;9.304;2023-06-04T19:28:49;0.97;;;0.97;;
1533;SDS011;760;48.822;9.304;2023-06-04T19:31:14;1.40;;;1.30;;
1533;SDS011;760;48.822;9.304;2023-06-04T19:33:40;1.37;;;1.27;;